sensor_id;sensor_type;location;lat;lon;timestamp;P1;durP1;ratioP1;P2;durP2;ratioP2
2390;SDS011;22957;50.824;4.360;2023-03-24T00:02:02;3.10;;;1.53;;
2390;SDS011;22957;50.824;4.360;2023-03-24T00:04:28;3.90;;;1.47;;
2390;SDS011;22957;50.824;4.360;2023-03-24T00:06:54;3.43;;;1.57;;
2390;SDS011;22957;50.824;4.360;2023-03-24T00:09:19;3.20;;;1.60;;
2390;SDS011;22957;50.824;4.360;2023-03-24T00:11:45;2.80;;;1.50;;
2390;SDS011;22957;50.824;4.360;2023-03-24T00:14:11;2.40;;;1.33;;
2390;SDS011;22957;50.824;4.360;2023-03-24T00:16:37;2.30;;;1.53;;
2390;SDS011;22957;50.824;4.360;2023-03-24T00:19:07;2.13;;;1.20;;
2390;SDS011;22957;50.824;4.360;2023-03-24T00:21:34;2.60;;;1.50;;
2390;SDS011;22957;50.824;4.360;2023-03-24T00:24:01;3.03;;;1.30;;
2390;SDS011;22957;50.824;4.360;2023-03-24T00:26:28;2.80;;;1.40;;
2390;SDS011;22957;50.824;4.360;2023-03-24T00:28:54;6.33;;;1.60;;
2390;SDS011;22957;50.824;4.360;2023-03-24T00:31:21;2.87;;;1.47;;
2390;SDS011;22957;50.824;4.360;2023-03-24T00:33:48;4.57;;;1.60;;
2390;SDS011;22957;50.824;4.360;2023-03-24T00:36:18;1.70;;;1.23;;
2390;SDS011;22957;50.824;4.360;2023-03-24T00:38:45;1.83;;;1.20;;
2390;SDS011;22957;50.824;4.360;2023-03-24T00:41:12;2.30;;;1.40;;
2390;SDS011;22957;50.824;4.360;2023-03-24T00:43:38;3.43;;;1.30;;
2390;SDS011;22957;50.824;4.360;2023-03-24T00:46:06;4.87;;;1.67;;
2390;SDS011;22957;50.824;4.360;2023-03-24T00:48:35;3.37;;;1.30;;
2390;SDS011;22957;50.824;4.360;2023-03-24T00:51:02;3.10;;;1.50;;
2390;SDS011;22957;50.824;4.360;2023-03-24T00:53:32;2.40;;;1.50;;
2390;SDS011;22957;50.824;4.360;2023-03-24T00:55:59;2.07;;;1.60;;
2390;SDS011;22957;50.824;4.360;2023-03-24T00:58:25;1.70;;;1.37;;
2390;SDS011;22957;50.824;4.360;2023-03-24T01:00:54;3.80;;;1.80;;
2390;SDS011;22957;50.824;4.360;2023-03-24T01:03:21;9.17;;;1.57;;
2390;SDS011;22957;50.824;4.360;2023-03-24T01:05:52;2.47;;;1.30;;
2390;SDS011;22957;50.824;4.360;2023-03-24T01:08:21;2.17;;;1.40;;
2390;SDS011;22957;50.824;4.360;2023-03-24T01:10:50;2.23;;;1.30;;
2390;SDS011;22957;50.824;4.360;2023-03-24T01:13:20;2.87;;;1.40;;
2390;SDS011;22957;50.824;4.360;2023-03-24T01:15:48;1.57;;;1.47;;
2390;SDS011;22957;50.824;4.360;2023-03-24T01:18:15;2.63;;;1.33;;
2390;SDS011;22957;50.824;4.360;2023-03-24T01:20:42;2.37;;;1.30;;
2390;SDS011;22957;50.824;4.360;2023-03-24T01:23:11;4.00;;;1.57;;
2390;SDS011;22957;50.824;4.360;2023-03-24T01:25:39;3.07;;;1.30;;
2390;SDS011;22957;50.824;4.360;2023-03-24T01:28:09;4.67;;;1.40;;
2390;SDS011;22957;50.824;4.360;2023-03-24T01:30:38;2.57;;;1.60;;
2390;SDS011;22957;50.824;4.360;2023-03-24T01:33:04;3.13;;;1.33;;
2390;SDS011;22957;50.824;4.360;2023-03-24T01:35:30;2.73;;;1.20;;
2390;SDS011;22957;50.824;4.360;2023-03-24T01:37:56;2.30;;;1.13;;
2390;SDS011;22957;50.824;4.360;2023-03-24T01:40:27;2.27;;;1.57;;
2390;SDS011;22957;50.824;4.360;2023-03-24T01:42:54;2.97;;;1.57;;
2390;SDS011;22957;50.824;4.360;2023-03-24T01:48:08;2.57;;;1.50;;
2390;SDS011;22957;50.824;4.360;2023-03-24T01:50:54;3.57;;;1.80;;
2390;SDS011;22957;50.824;4.360;2023-03-24T01:53:24;4.17;;;1.73;;
2390;SDS011;22957;50.824;4.360;2023-03-24T01:55:51;3.83;;;1.50;;
2390;SDS011;22957;50.824;4.360;2023-03-24T01:58:18;2.70;;;1.83;;
2390;SDS011;22957;50.824;4.360;2023-03-24T02:00:44;2.77;;;1.93;;
2390;SDS011;22957;50.824;4.360;2023-03-24T02:03:14;2.30;;;1.80;;
2390;SDS011;22957;50.824;4.360;2023-03-24T02:05:45;4.77;;;2.13;;
2390;SDS011;22957;50.824;4.360;2023-03-24T02:08:19;2.10;;;1.80;;
2390;SDS011;22957;50.824;4.360;2023-03-24T02:10:55;2.37;;;1.50;;
2390;SDS011;22957;50.824;4.360;2023-03-24T02:13:21;3.43;;;1.40;;
2390;SDS011;22957;50.824;4.360;2023-03-24T02:15:58;3.43;;;1.20;;
2390;SDS011;22957;50.824;4.360;2023-03-24T02:18:57;1.90;;;1.40;;
2390;SDS011;22957;50.824;4.360;2023-03-24T02:24:46;5.63;;;1.40;;
2390;SDS011;22957;50.824;4.360;2023-03-24T02:30:25;6.10;;;1.00;;
2390;SDS011;22957;50.824;4.360;2023-03-24T02:38:38;2.33;;;0.80;;
2390;SDS011;22957;50.824;4.360;2023-03-24T02:41:31;4.33;;;1.10;;
2390;SDS011;22957;50.824;4.360;2023-03-24T02:59:17;2.70;;;0.70;;
2390;SDS011;22957;50.824;4.360;2023-03-24T03:01:59;3.80;;;0.80;;
2390;SDS011;22957;50.824;4.360;2023-03-24T03:04:33;2.70;;;0.93;;
2390;SDS011;22957;50.824;4.360;2023-03-24T03:07:10;3.20;;;0.90;;
2390;SDS011;22957;50.824;4.360;2023-03-24T03:09:42;2.93;;;0.80;;
2390;SDS011;22957;50.824;4.360;2023-03-24T03:12:13;2.30;;;0.90;;
2390;SDS011;22957;50.824;4.360;2023-03-24T03:14:51;4.30;;;0.90;;
2390;SDS011;22957;50.824;4.360;2023-03-24T03:17:22;2.70;;;1.00;;
2390;SDS011;22957;50.824;4.360;2023-03-24T03:20:06;6.33;;;1.00;;
2390;SDS011;22957;50.824;4.360;2023-03-24T03:22:43;4.07;;;1.00;;
2390;SDS011;22957;50.824;4.360;2023-03-24T03:25:17;3.50;;;1.10;;
2390;SDS011;22957;50.824;4.360;2023-03-24T03:27:50;2.33;;;0.93;;
2390;SDS011;22957;50.824;4.360;2023-03-24T03:30:33;5.93;;;1.00;;
2390;SDS011;22957;50.824;4.360;2023-03-24T03:33:05;6.23;;;1.27;;
2390;SDS011;22957;50.824;4.360;2023-03-24T03:35:50;8.53;;;1.20;;
2390;SDS011;22957;50.824;4.360;2023-03-24T03:38:28;3.03;;;0.80;;
2390;SDS011;22957;50.824;4.360;2023-03-24T03:41:02;8.17;;;1.83;;
2390;SDS011;22957;50.824;4.360;2023-03-24T03:43:30;8.47;;;1.27;;
2390;SDS011;22957;50.824;4.360;2023-03-24T03:45:57;9.63;;;1.37;;
2390;SDS011;22957;50.824;4.360;2023-03-24T03:48:24;6.10;;;1.13;;
2390;SDS011;22957;50.824;4.360;2023-03-24T03:50:50;5.00;;;1.40;;
2390;SDS011;22957;50.824;4.360;2023-03-24T03:53:18;6.10;;;1.10;;
2390;SDS011;22957;50.824;4.360;2023-03-24T03:55:47;10.20;;;1.27;;
2390;SDS011;22957;50.824;4.360;2023-03-24T03:58:13;7.17;;;1.23;;
2390;SDS011;22957;50.824;4.360;2023-03-24T04:00:39;6.60;;;1.10;;
2390;SDS011;22957;50.824;4.360;2023-03-24T04:06:08;4.43;;;1.13;;
2390;SDS011;22957;50.824;4.360;2023-03-24T04:09:39;9.10;;;1.17;;
2390;SDS011;22957;50.824;4.360;2023-03-24T04:20:15;7.47;;;1.20;;
2390;SDS011;22957;50.824;4.360;2023-03-24T04:25:53;9.03;;;1.57;;
2390;SDS011;22957;50.824;4.360;2023-03-24T04:28:37;10.53;;;2.10;;
2390;SDS011;22957;50.824;4.360;2023-03-24T04:31:28;7.40;;;1.50;;
2390;SDS011;22957;50.824;4.360;2023-03-24T04:34:03;8.50;;;1.53;;
2390;SDS011;22957;50.824;4.360;2023-03-24T04:39:32;6.37;;;1.40;;
2390;SDS011;22957;50.824;4.360;2023-03-24T04:42:03;7.73;;;1.57;;
2390;SDS011;22957;50.824;4.360;2023-03-24T04:44:32;9.70;;;1.67;;
2390;SDS011;22957;50.824;4.360;2023-03-24T04:46:58;12.23;;;1.90;;
2390;SDS011;22957;50.824;4.360;2023-03-24T04:49:26;9.00;;;2.07;;
2390;SDS011;22957;50.824;4.360;2023-03-24T04:51:52;10.33;;;2.17;;
2390;SDS011;22957;50.824;4.360;2023-03-24T04:54:19;9.57;;;2.10;;
2390;SDS011;22957;50.824;4.360;2023-03-24T04:56:47;8.67;;;2.03;;
2390;SDS011;22957;50.824;4.360;2023-03-24T04:59:21;11.53;;;2.37;;
2390;SDS011;22957;50.824;4.360;2023-03-24T05:01:47;16.13;;;3.23;;
2390;SDS011;22957;50.824;4.360;2023-03-24T05:04:19;9.17;;;2.13;;
2390;SDS011;22957;50.824;4.360;2023-03-24T05:06:46;13.10;;;2.80;;
2390;SDS011;22957;50.824;4.360;2023-03-24T05:09:16;12.50;;;2.20;;
2390;SDS011;22957;50.824;4.360;2023-03-24T05:11:43;9.03;;;2.13;;
2390;SDS011;22957;50.824;4.360;2023-03-24T05:14:10;11.63;;;2.47;;
2390;SDS011;22957;50.824;4.360;2023-03-24T05:16:35;7.77;;;1.87;;
2390;SDS011;22957;50.824;4.360;2023-03-24T05:19:01;9.80;;;1.90;;
2390;SDS011;22957;50.824;4.360;2023-03-24T05:21:28;9.23;;;1.90;;
2390;SDS011;22957;50.824;4.360;2023-03-24T05:23:53;12.03;;;1.70;;
2390;SDS011;22957;50.824;4.360;2023-03-24T05:26:19;7.97;;;1.43;;
2390;SDS011;22957;50.824;4.360;2023-03-24T05:28:45;11.00;;;1.90;;
2390;SDS011;22957;50.824;4.360;2023-03-24T05:31:10;8.50;;;1.90;;
2390;SDS011;22957;50.824;4.360;2023-03-24T05:33:36;10.20;;;1.93;;
2390;SDS011;22957;50.824;4.360;2023-03-24T05:36:02;12.90;;;2.67;;
2390;SDS011;22957;50.824;4.360;2023-03-24T05:38:28;9.50;;;1.60;;
2390;SDS011;22957;50.824;4.360;2023-03-24T05:40:57;11.83;;;2.20;;
2390;SDS011;22957;50.824;4.360;2023-03-24T05:43:24;11.23;;;1.30;;
2390;SDS011;22957;50.824;4.360;2023-03-24T05:45:50;8.43;;;1.60;;
2390;SDS011;22957;50.824;4.360;2023-03-24T05:48:15;15.13;;;2.10;;
2390;SDS011;22957;50.824;4.360;2023-03-24T05:50:41;9.00;;;1.50;;
2390;SDS011;22957;50.824;4.360;2023-03-24T05:53:07;7.10;;;1.70;;
2390;SDS011;22957;50.824;4.360;2023-03-24T05:55:34;11.00;;;1.80;;
2390;SDS011;22957;50.824;4.360;2023-03-24T05:57:59;13.50;;;1.87;;
2390;SDS011;22957;50.824;4.360;2023-03-24T06:00:26;14.40;;;2.00;;
2390;SDS011;22957;50.824;4.360;2023-03-24T06:02:55;14.70;;;1.83;;
2390;SDS011;22957;50.824;4.360;2023-03-24T06:05:22;12.40;;;2.03;;
2390;SDS011;22957;50.824;4.360;2023-03-24T06:07:48;12.93;;;1.90;;
2390;SDS011;22957;50.824;4.360;2023-03-24T06:10:13;7.33;;;2.17;;
2390;SDS011;22957;50.824;4.360;2023-03-24T06:12:42;10.27;;;1.67;;
2390;SDS011;22957;50.824;4.360;2023-03-24T06:15:09;8.33;;;1.80;;
2390;SDS011;22957;50.824;4.360;2023-03-24T06:17:35;13.53;;;1.80;;
2390;SDS011;22957;50.824;4.360;2023-03-24T06:20:01;20.17;;;2.13;;
2390;SDS011;22957;50.824;4.360;2023-03-24T06:22:29;7.70;;;1.50;;
2390;SDS011;22957;50.824;4.360;2023-03-24T06:24:57;16.70;;;1.80;;
2390;SDS011;22957;50.824;4.360;2023-03-24T06:27:23;10.80;;;1.90;;
2390;SDS011;22957;50.824;4.360;2023-03-24T06:29:54;10.97;;;1.30;;
2390;SDS011;22957;50.824;4.360;2023-03-24T06:32:22;19.50;;;2.17;;
2390;SDS011;22957;50.824;4.360;2023-03-24T06:34:49;12.50;;;2.27;;
2390;SDS011;22957;50.824;4.360;2023-03-24T06:37:14;9.77;;;1.60;;
2390;SDS011;22957;50.824;4.360;2023-03-24T06:39:40;8.07;;;1.80;;
2390;SDS011;22957;50.824;4.360;2023-03-24T06:42:06;12.07;;;1.70;;
2390;SDS011;22957;50.824;4.360;2023-03-24T06:44:31;6.73;;;2.30;;
2390;SDS011;22957;50.824;4.360;2023-03-24T06:46:57;11.90;;;2.43;;
2390;SDS011;22957;50.824;4.360;2023-03-24T06:49:23;8.37;;;1.53;;
2390;SDS011;22957;50.824;4.360;2023-03-24T06:51:48;11.17;;;2.20;;
2390;SDS011;22957;50.824;4.360;2023-03-24T06:54:14;11.27;;;1.90;;
2390;SDS011;22957;50.824;4.360;2023-03-24T06:56:40;10.57;;;2.10;;
2390;SDS011;22957;50.824;4.360;2023-03-24T06:59:06;13.70;;;1.97;;
2390;SDS011;22957;50.824;4.360;2023-03-24T07:01:32;7.67;;;1.90;;
2390;SDS011;22957;50.824;4.360;2023-03-24T07:03:59;14.33;;;1.73;;
2390;SDS011;22957;50.824;4.360;2023-03-24T07:06:25;10.23;;;2.30;;
2390;SDS011;22957;50.824;4.360;2023-03-24T07:08:51;7.17;;;1.77;;
2390;SDS011;22957;50.824;4.360;2023-03-24T07:11:16;6.87;;;1.70;;
2390;SDS011;22957;50.824;4.360;2023-03-24T07:13:42;8.57;;;1.70;;
2390;SDS011;22957;50.824;4.360;2023-03-24T07:16:08;10.00;;;1.53;;
2390;SDS011;22957;50.824;4.360;2023-03-24T07:18:34;9.10;;;1.87;;
2390;SDS011;22957;50.824;4.360;2023-03-24T07:21:00;12.43;;;2.13;;
2390;SDS011;22957;50.824;4.360;2023-03-24T07:23:25;6.60;;;1.57;;
2390;SDS011;22957;50.824;4.360;2023-03-24T07:25:51;8.93;;;1.90;;
2390;SDS011;22957;50.824;4.360;2023-03-24T07:28:17;6.50;;;1.40;;
2390;SDS011;22957;50.824;4.360;2023-03-24T07:30:43;8.20;;;1.67;;
2390;SDS011;22957;50.824;4.360;2023-03-24T07:33:09;9.43;;;1.93;;
2390;SDS011;22957;50.824;4.360;2023-03-24T07:35:36;6.17;;;1.53;;
2390;SDS011;22957;50.824;4.360;2023-03-24T07:38:02;9.20;;;1.90;;
2390;SDS011;22957;50.824;4.360;2023-03-24T07:40:28;7.53;;;1.50;;
2390;SDS011;22957;50.824;4.360;2023-03-24T07:42:54;7.90;;;1.73;;
2390;SDS011;22957;50.824;4.360;2023-03-24T07:45:23;9.03;;;1.73;;
2390;SDS011;22957;50.824;4.360;2023-03-24T07:47:49;9.73;;;1.73;;
2390;SDS011;22957;50.824;4.360;2023-03-24T07:50:14;6.87;;;1.50;;
2390;SDS011;22957;50.824;4.360;2023-03-24T07:52:41;10.53;;;2.07;;
2390;SDS011;22957;50.824;4.360;2023-03-24T07:55:10;10.27;;;1.43;;
2390;SDS011;22957;50.824;4.360;2023-03-24T07:57:37;9.60;;;1.90;;
2390;SDS011;22957;50.824;4.360;2023-03-24T08:00:07;9.87;;;1.50;;
2390;SDS011;22957;50.824;4.360;2023-03-24T08:02:42;13.50;;;2.27;;
2390;SDS011;22957;50.824;4.360;2023-03-24T08:05:09;6.83;;;1.43;;
2390;SDS011;22957;50.824;4.360;2023-03-24T08:07:37;8.47;;;1.80;;
2390;SDS011;22957;50.824;4.360;2023-03-24T08:10:06;9.80;;;2.17;;
2390;SDS011;22957;50.824;4.360;2023-03-24T08:12:36;8.03;;;1.93;;
2390;SDS011;22957;50.824;4.360;2023-03-24T08:15:02;15.67;;;2.40;;
2390;SDS011;22957;50.824;4.360;2023-03-24T08:17:29;6.80;;;1.70;;
2390;SDS011;22957;50.824;4.360;2023-03-24T08:19:55;8.00;;;1.50;;
2390;SDS011;22957;50.824;4.360;2023-03-24T08:22:20;6.80;;;2.03;;
2390;SDS011;22957;50.824;4.360;2023-03-24T08:24:46;7.57;;;1.50;;
2390;SDS011;22957;50.824;4.360;2023-03-24T08:27:12;5.80;;;1.60;;
2390;SDS011;22957;50.824;4.360;2023-03-24T08:29:37;3.87;;;1.40;;
2390;SDS011;22957;50.824;4.360;2023-03-24T08:32:03;7.57;;;1.73;;
2390;SDS011;22957;50.824;4.360;2023-03-24T08:34:28;9.63;;;1.50;;
2390;SDS011;22957;50.824;4.360;2023-03-24T08:36:54;6.57;;;1.50;;
2390;SDS011;22957;50.824;4.360;2023-03-24T08:39:20;8.00;;;1.87;;
2390;SDS011;22957;50.824;4.360;2023-03-24T08:41:45;10.80;;;1.90;;
2390;SDS011;22957;50.824;4.360;2023-03-24T08:44:14;8.00;;;2.07;;
2390;SDS011;22957;50.824;4.360;2023-03-24T08:46:40;9.80;;;2.40;;
2390;SDS011;22957;50.824;4.360;2023-03-24T08:49:06;9.70;;;1.70;;
2390;SDS011;22957;50.824;4.360;2023-03-24T08:51:32;7.90;;;1.70;;
2390;SDS011;22957;50.824;4.360;2023-03-24T08:53:57;12.60;;;1.63;;
2390;SDS011;22957;50.824;4.360;2023-03-24T08:56:23;8.40;;;1.70;;
2390;SDS011;22957;50.824;4.360;2023-03-24T08:58:49;11.10;;;1.70;;
2390;SDS011;22957;50.824;4.360;2023-03-24T09:01:17;19.83;;;2.53;;
2390;SDS011;22957;50.824;4.360;2023-03-24T09:03:44;12.57;;;1.90;;
2390;SDS011;22957;50.824;4.360;2023-03-24T09:06:10;10.43;;;2.13;;
2390;SDS011;22957;50.824;4.360;2023-03-24T09:08:36;9.57;;;2.00;;
2390;SDS011;22957;50.824;4.360;2023-03-24T09:11:02;10.23;;;2.13;;
2390;SDS011;22957;50.824;4.360;2023-03-24T09:13:28;5.47;;;1.37;;
2390;SDS011;22957;50.824;4.360;2023-03-24T09:15:56;5.90;;;1.73;;
2390;SDS011;22957;50.824;4.360;2023-03-24T09:18:24;10.70;;;1.60;;
2390;SDS011;22957;50.824;4.360;2023-03-24T09:20:50;11.87;;;2.03;;
2390;SDS011;22957;50.824;4.360;2023-03-24T09:23:16;7.77;;;2.17;;
2390;SDS011;22957;50.824;4.360;2023-03-24T09:25:43;15.80;;;1.70;;
2390;SDS011;22957;50.824;4.360;2023-03-24T09:28:09;8.90;;;2.07;;
2390;SDS011;22957;50.824;4.360;2023-03-24T09:30:35;12.00;;;1.90;;
2390;SDS011;22957;50.824;4.360;2023-03-24T09:33:01;6.87;;;1.50;;
2390;SDS011;22957;50.824;4.360;2023-03-24T09:35:26;12.40;;;1.83;;
2390;SDS011;22957;50.824;4.360;2023-03-24T09:37:53;8.40;;;1.63;;
2390;SDS011;22957;50.824;4.360;2023-03-24T09:40:27;6.70;;;1.63;;
2390;SDS011;22957;50.824;4.360;2023-03-24T09:42:59;7.43;;;1.57;;
2390;SDS011;22957;50.824;4.360;2023-03-24T09:45:29;8.20;;;1.77;;
2390;SDS011;22957;50.824;4.360;2023-03-24T09:48:02;9.77;;;1.60;;
2390;SDS011;22957;50.824;4.360;2023-03-24T09:50:45;12.00;;;1.80;;
2390;SDS011;22957;50.824;4.360;2023-03-24T09:55:56;5.97;;;1.80;;
2390;SDS011;22957;50.824;4.360;2023-03-24T09:58:26;5.97;;;1.40;;
2390;SDS011;22957;50.824;4.360;2023-03-24T10:00:53;7.13;;;1.33;;
2390;SDS011;22957;50.824;4.360;2023-03-24T10:03:20;13.00;;;1.93;;
2390;SDS011;22957;50.824;4.360;2023-03-24T10:08:35;10.73;;;1.87;;
2390;SDS011;22957;50.824;4.360;2023-03-24T10:13:59;10.10;;;2.13;;
2390;SDS011;22957;50.824;4.360;2023-03-24T10:16:40;8.93;;;1.40;;
2390;SDS011;22957;50.824;4.360;2023-03-24T10:22:31;7.50;;;1.63;;
2390;SDS011;22957;50.824;4.360;2023-03-24T10:25:14;7.60;;;2.00;;
2390;SDS011;22957;50.824;4.360;2023-03-24T10:27:54;7.33;;;1.73;;
2390;SDS011;22957;50.824;4.360;2023-03-24T10:30:25;7.80;;;1.70;;
2390;SDS011;22957;50.824;4.360;2023-03-24T10:32:57;5.63;;;1.73;;
2390;SDS011;22957;50.824;4.360;2023-03-24T10:37:59;8.87;;;2.03;;
2390;SDS011;22957;50.824;4.360;2023-03-24T10:40:33;8.57;;;2.10;;
2390;SDS011;22957;50.824;4.360;2023-03-24T10:43:00;8.50;;;1.50;;
2390;SDS011;22957;50.824;4.360;2023-03-24T10:45:28;8.37;;;1.60;;
2390;SDS011;22957;50.824;4.360;2023-03-24T10:47:57;9.00;;;1.63;;
2390;SDS011;22957;50.824;4.360;2023-03-24T10:50:25;6.33;;;1.30;;
2390;SDS011;22957;50.824;4.360;2023-03-24T10:52:53;12.27;;;2.10;;
2390;SDS011;22957;50.824;4.360;2023-03-24T10:55:20;6.20;;;1.50;;
2390;SDS011;22957;50.824;4.360;2023-03-24T10:57:48;5.73;;;1.40;;
2390;SDS011;22957;50.824;4.360;2023-03-24T11:00:21;10.83;;;1.83;;
2390;SDS011;22957;50.824;4.360;2023-03-24T11:03:05;7.23;;;1.53;;
2390;SDS011;22957;50.824;4.360;2023-03-24T11:05:36;6.63;;;2.00;;
2390;SDS011;22957;50.824;4.360;2023-03-24T11:10:41;9.07;;;1.50;;
2390;SDS011;22957;50.824;4.360;2023-03-24T11:16:15;9.33;;;2.33;;
2390;SDS011;22957;50.824;4.360;2023-03-24T11:18:54;10.03;;;1.80;;
2390;SDS011;22957;50.824;4.360;2023-03-24T11:21:25;11.03;;;1.80;;
2390;SDS011;22957;50.824;4.360;2023-03-24T11:23:53;10.23;;;1.50;;
2390;SDS011;22957;50.824;4.360;2023-03-24T11:26:32;11.70;;;1.83;;
2390;SDS011;22957;50.824;4.360;2023-03-24T11:29:01;9.90;;;1.80;;
2390;SDS011;22957;50.824;4.360;2023-03-24T11:31:38;12.30;;;1.83;;
2390;SDS011;22957;50.824;4.360;2023-03-24T11:34:14;7.47;;;1.43;;
2390;SDS011;22957;50.824;4.360;2023-03-24T11:36:53;15.73;;;2.10;;
2390;SDS011;22957;50.824;4.360;2023-03-24T11:39:25;8.43;;;1.83;;
2390;SDS011;22957;50.824;4.360;2023-03-24T11:53:18;10.43;;;2.20;;
2390;SDS011;22957;50.824;4.360;2023-03-24T12:00:54;8.00;;;2.00;;
2390;SDS011;22957;50.824;4.360;2023-03-24T12:08:40;9.50;;;1.80;;
2390;SDS011;22957;50.824;4.360;2023-03-24T12:14:05;7.27;;;2.00;;
2390;SDS011;22957;50.824;4.360;2023-03-24T12:22:26;7.90;;;1.90;;
2390;SDS011;22957;50.824;4.360;2023-03-24T12:28:15;10.70;;;2.27;;
2390;SDS011;22957;50.824;4.360;2023-03-24T12:31:05;16.40;;;2.43;;
2390;SDS011;22957;50.824;4.360;2023-03-24T12:33:46;8.63;;;2.20;;
2390;SDS011;22957;50.824;4.360;2023-03-24T12:36:30;9.03;;;2.20;;
2390;SDS011;22957;50.824;4.360;2023-03-24T12:39:03;7.23;;;1.57;;
2390;SDS011;22957;50.824;4.360;2023-03-24T12:44:44;7.87;;;1.83;;
2390;SDS011;22957;50.824;4.360;2023-03-24T12:47:35;7.40;;;1.63;;
2390;SDS011;22957;50.824;4.360;2023-03-24T12:53:19;5.00;;;1.20;;
2390;SDS011;22957;50.824;4.360;2023-03-24T12:56:10;7.40;;;1.50;;
2390;SDS011;22957;50.824;4.360;2023-03-24T12:58:51;7.00;;;1.77;;
2390;SDS011;22957;50.824;4.360;2023-03-24T13:01:47;6.50;;;1.40;;
2390;SDS011;22957;50.824;4.360;2023-03-24T13:04:28;7.80;;;1.57;;
2390;SDS011;22957;50.824;4.360;2023-03-24T13:06:59;7.33;;;2.00;;
2390;SDS011;22957;50.824;4.360;2023-03-24T13:09:47;13.57;;;2.20;;
2390;SDS011;22957;50.824;4.360;2023-03-24T13:12:38;8.83;;;1.73;;
2390;SDS011;22957;50.824;4.360;2023-03-24T13:20:35;5.93;;;1.10;;
2390;SDS011;22957;50.824;4.360;2023-03-24T13:23:24;8.43;;;1.03;;
2390;SDS011;22957;50.824;4.360;2023-03-24T13:34:27;4.50;;;1.10;;
2390;SDS011;22957;50.824;4.360;2023-03-24T13:37:05;5.03;;;1.07;;
2390;SDS011;22957;50.824;4.360;2023-03-24T13:39:39;5.37;;;1.30;;
2390;SDS011;22957;50.824;4.360;2023-03-24T13:42:19;3.70;;;1.30;;
2390;SDS011;22957;50.824;4.360;2023-03-24T13:44:56;4.60;;;1.20;;
2390;SDS011;22957;50.824;4.360;2023-03-24T13:47:25;9.53;;;1.53;;
2390;SDS011;22957;50.824;4.360;2023-03-24T13:52:20;5.80;;;1.50;;
2390;SDS011;22957;50.824;4.360;2023-03-24T13:54:53;6.53;;;1.30;;
2390;SDS011;22957;50.824;4.360;2023-03-24T13:57:22;6.00;;;1.33;;
2390;SDS011;22957;50.824;4.360;2023-03-24T13:59:56;7.67;;;1.63;;
2390;SDS011;22957;50.824;4.360;2023-03-24T14:07:29;11.70;;;2.40;;
2390;SDS011;22957;50.824;4.360;2023-03-24T14:10:09;6.17;;;1.40;;
2390;SDS011;22957;50.824;4.360;2023-03-24T14:15:25;7.97;;;1.60;;
2390;SDS011;22957;50.824;4.360;2023-03-24T14:17:53;7.00;;;1.60;;
2390;SDS011;22957;50.824;4.360;2023-03-24T14:20:32;4.13;;;1.30;;
2390;SDS011;22957;50.824;4.360;2023-03-24T14:23:00;4.67;;;1.30;;
2390;SDS011;22957;50.824;4.360;2023-03-24T14:25:28;5.50;;;1.30;;
2390;SDS011;22957;50.824;4.360;2023-03-24T14:31:00;7.33;;;1.10;;
2390;SDS011;22957;50.824;4.360;2023-03-24T14:33:26;6.87;;;1.37;;
2390;SDS011;22957;50.824;4.360;2023-03-24T14:35:57;5.73;;;1.20;;
2390;SDS011;22957;50.824;4.360;2023-03-24T14:38:28;7.40;;;1.40;;
2390;SDS011;22957;50.824;4.360;2023-03-24T14:41:04;3.40;;;1.37;;
2390;SDS011;22957;50.824;4.360;2023-03-24T14:46:04;5.43;;;1.10;;
2390;SDS011;22957;50.824;4.360;2023-03-24T14:50:58;4.13;;;1.17;;
2390;SDS011;22957;50.824;4.360;2023-03-24T14:53:33;2.90;;;1.00;;
2390;SDS011;22957;50.824;4.360;2023-03-24T14:56:01;5.70;;;1.13;;
2390;SDS011;22957;50.824;4.360;2023-03-24T14:58:29;6.53;;;1.40;;
2390;SDS011;22957;50.824;4.360;2023-03-24T15:01:03;4.67;;;1.07;;
2390;SDS011;22957;50.824;4.360;2023-03-24T15:06:19;2.67;;;0.87;;
2390;SDS011;22957;50.824;4.360;2023-03-24T15:08:52;2.40;;;0.80;;
2390;SDS011;22957;50.824;4.360;2023-03-24T15:11:22;11.37;;;0.93;;
2390;SDS011;22957;50.824;4.360;2023-03-24T15:13:51;1.80;;;0.70;;
2390;SDS011;22957;50.824;4.360;2023-03-24T15:16:22;3.77;;;1.00;;
2390;SDS011;22957;50.824;4.360;2023-03-24T15:18:52;5.03;;;1.10;;
2390;SDS011;22957;50.824;4.360;2023-03-24T15:21:21;3.80;;;0.80;;
2390;SDS011;22957;50.824;4.360;2023-03-24T15:24:27;1.57;;;0.80;;
2390;SDS011;22957;50.824;4.360;2023-03-24T15:29:32;2.57;;;0.77;;
2390;SDS011;22957;50.824;4.360;2023-03-24T15:32:05;4.87;;;1.00;;
2390;SDS011;22957;50.824;4.360;2023-03-24T15:34:39;5.33;;;0.97;;
2390;SDS011;22957;50.824;4.360;2023-03-24T15:37:17;3.83;;;1.40;;
2390;SDS011;22957;50.824;4.360;2023-03-24T15:39:49;3.37;;;0.93;;
2390;SDS011;22957;50.824;4.360;2023-03-24T15:42:18;3.53;;;0.80;;
2390;SDS011;22957;50.824;4.360;2023-03-24T15:44:45;7.27;;;1.23;;
2390;SDS011;22957;50.824;4.360;2023-03-24T15:49:46;4.73;;;1.00;;
2390;SDS011;22957;50.824;4.360;2023-03-24T15:54:59;3.83;;;1.00;;
2390;SDS011;22957;50.824;4.360;2023-03-24T15:57:46;7.50;;;1.17;;
2390;SDS011;22957;50.824;4.360;2023-03-24T16:00:13;4.20;;;1.10;;
2390;SDS011;22957;50.824;4.360;2023-03-24T16:02:47;6.10;;;1.00;;
2390;SDS011;22957;50.824;4.360;2023-03-24T16:08:00;4.87;;;1.03;;
2390;SDS011;22957;50.824;4.360;2023-03-24T16:10:40;4.10;;;1.00;;
2390;SDS011;22957;50.824;4.360;2023-03-24T16:13:12;4.00;;;1.23;;
2390;SDS011;22957;50.824;4.360;2023-03-24T16:15:41;8.00;;;1.23;;
2390;SDS011;22957;50.824;4.360;2023-03-24T16:20:57;4.43;;;1.10;;
2390;SDS011;22957;50.824;4.360;2023-03-24T16:23:33;5.13;;;1.10;;
2390;SDS011;22957;50.824;4.360;2023-03-24T16:25:59;4.40;;;1.17;;
2390;SDS011;22957;50.824;4.360;2023-03-24T16:28:25;5.97;;;1.43;;
2390;SDS011;22957;50.824;4.360;2023-03-24T16:30:58;8.20;;;1.23;;
2390;SDS011;22957;50.824;4.360;2023-03-24T16:33:27;5.67;;;1.30;;
2390;SDS011;22957;50.824;4.360;2023-03-24T16:35:57;9.47;;;1.50;;
2390;SDS011;22957;50.824;4.360;2023-03-24T16:38:23;7.17;;;1.30;;
2390;SDS011;22957;50.824;4.360;2023-03-24T16:40:50;5.77;;;1.30;;
2390;SDS011;22957;50.824;4.360;2023-03-24T16:43:18;5.50;;;1.10;;
2390;SDS011;22957;50.824;4.360;2023-03-24T16:45:45;5.63;;;1.33;;
2390;SDS011;22957;50.824;4.360;2023-03-24T16:48:11;3.23;;;0.97;;
2390;SDS011;22957;50.824;4.360;2023-03-24T16:50:41;4.37;;;1.13;;
2390;SDS011;22957;50.824;4.360;2023-03-24T16:53:09;4.20;;;1.20;;
2390;SDS011;22957;50.824;4.360;2023-03-24T16:55:35;5.00;;;1.37;;
2390;SDS011;22957;50.824;4.360;2023-03-24T16:58:03;4.63;;;1.20;;
2390;SDS011;22957;50.824;4.360;2023-03-24T17:00:30;2.47;;;1.03;;
2390;SDS011;22957;50.824;4.360;2023-03-24T17:02:56;2.53;;;0.93;;
2390;SDS011;22957;50.824;4.360;2023-03-24T17:05:25;4.83;;;1.10;;
2390;SDS011;22957;50.824;4.360;2023-03-24T17:07:53;3.53;;;1.00;;
2390;SDS011;22957;50.824;4.360;2023-03-24T17:10:19;6.83;;;1.20;;
2390;SDS011;22957;50.824;4.360;2023-03-24T17:12:46;5.33;;;1.20;;
2390;SDS011;22957;50.824;4.360;2023-03-24T17:15:14;6.13;;;0.90;;
2390;SDS011;22957;50.824;4.360;2023-03-24T17:17:45;5.97;;;1.10;;
2390;SDS011;22957;50.824;4.360;2023-03-24T17:20:11;2.90;;;1.20;;
2390;SDS011;22957;50.824;4.360;2023-03-24T17:22:38;3.80;;;0.93;;
2390;SDS011;22957;50.824;4.360;2023-03-24T17:25:05;2.97;;;0.80;;
2390;SDS011;22957;50.824;4.360;2023-03-24T17:27:31;1.93;;;0.80;;
2390;SDS011;22957;50.824;4.360;2023-03-24T17:29:56;1.50;;;0.80;;
2390;SDS011;22957;50.824;4.360;2023-03-24T17:32:29;1.53;;;0.70;;
2390;SDS011;22957;50.824;4.360;2023-03-24T17:34:56;1.27;;;0.70;;
2390;SDS011;22957;50.824;4.360;2023-03-24T17:37:26;1.70;;;0.70;;
2390;SDS011;22957;50.824;4.360;2023-03-24T17:39:52;1.83;;;0.77;;
2390;SDS011;22957;50.824;4.360;2023-03-24T17:42:20;1.83;;;0.70;;
2390;SDS011;22957;50.824;4.360;2023-03-24T17:44:46;1.40;;;0.77;;
2390;SDS011;22957;50.824;4.360;2023-03-24T17:47:11;3.20;;;1.10;;
2390;SDS011;22957;50.824;4.360;2023-03-24T17:49:37;1.20;;;0.73;;
2390;SDS011;22957;50.824;4.360;2023-03-24T17:52:02;1.43;;;0.90;;